sensor_id;sensor_type;location;lat;lon;timestamp;P1;durP1;ratioP1;P2;durP2;ratioP2
25365;SDS011;13315;48.274;-1.900;2023-08-12T00:02:14;1.92;;;1.85;;
25365;SDS011;13315;48.274;-1.900;2023-08-12T00:04:40;2.15;;;2.05;;
25365;SDS011;13315;48.274;-1.900;2023-08-12T00:07:06;2.25;;;2.15;;
25365;SDS011;13315;48.274;-1.900;2023-08-12T00:09:32;2.30;;;2.20;;
25365;SDS011;13315;48.274;-1.900;2023-08-12T00:11:59;2.30;;;2.20;;
25365;SDS011;13315;48.274;-1.900;2023-08-12T00:14:25;3.38;;;3.08;;
25365;SDS011;13315;48.274;-1.900;2023-08-12T00:16:51;3.22;;;2.25;;
25365;SDS011;13315;48.274;-1.900;2023-08-12T00:19:17;2.55;;;2.30;;
25365;SDS011;13315;48.274;-1.900;2023-08-12T00:21:43;2.72;;;2.53;;
25365;SDS011;13315;48.274;-1.900;2023-08-12T00:24:09;2.33;;;2.22;;
25365;SDS011;13315;48.274;-1.900;2023-08-12T00:26:35;2.40;;;2.30;;
25365;SDS011;13315;48.274;-1.900;2023-08-12T00:29:01;2.40;;;2.30;;
25365;SDS011;13315;48.274;-1.900;2023-08-12T00:31:27;2.55;;;2.45;;
25365;SDS011;13315;48.274;-1.900;2023-08-12T00:33:53;4.60;;;2.65;;
25365;SDS011;13315;48.274;-1.900;2023-08-12T00:36:19;2.40;;;2.30;;
25365;SDS011;13315;48.274;-1.900;2023-08-12T00:38:45;2.20;;;2.10;;
25365;SDS011;13315;48.274;-1.900;2023-08-12T00:41:12;2.30;;;2.17;;
25365;SDS011;13315;48.274;-1.900;2023-08-12T00:43:38;3.83;;;1.95;;
25365;SDS011;13315;48.274;-1.900;2023-08-12T00:46:04;3.40;;;1.73;;
25365;SDS011;13315;48.274;-1.900;2023-08-12T00:48:30;2.88;;;2.42;;
25365;SDS011;13315;48.274;-1.900;2023-08-12T00:50:56;2.30;;;2.20;;
25365;SDS011;13315;48.274;-1.900;2023-08-12T00:53:22;2.22;;;2.13;;
25365;SDS011;13315;48.274;-1.900;2023-08-12T00:55:48;2.40;;;2.20;;
25365;SDS011;13315;48.274;-1.900;2023-08-12T00:58:14;2.70;;;2.50;;
25365;SDS011;13315;48.274;-1.900;2023-08-12T01:00:41;2.40;;;2.30;;
25365;SDS011;13315;48.274;-1.900;2023-08-12T01:03:07;2.80;;;2.70;;
25365;SDS011;13315;48.274;-1.900;2023-08-12T01:05:33;2.88;;;2.65;;
25365;SDS011;13315;48.274;-1.900;2023-08-12T01:08:00;2.70;;;2.60;;
25365;SDS011;13315;48.274;-1.900;2023-08-12T01:10:28;4.63;;;3.45;;
25365;SDS011;13315;48.274;-1.900;2023-08-12T01:12:59;3.05;;;2.85;;
25365;SDS011;13315;48.274;-1.900;2023-08-12T01:15:29;3.00;;;2.80;;
25365;SDS011;13315;48.274;-1.900;2023-08-12T01:17:56;2.97;;;2.78;;
25365;SDS011;13315;48.274;-1.900;2023-08-12T01:20:23;2.70;;;2.60;;
25365;SDS011;13315;48.274;-1.900;2023-08-12T01:22:58;2.67;;;2.58;;
25365;SDS011;13315;48.274;-1.900;2023-08-12T01:25:27;3.53;;;2.35;;
25365;SDS011;13315;48.274;-1.900;2023-08-12T01:27:53;2.53;;;2.38;;
25365;SDS011;13315;48.274;-1.900;2023-08-12T01:30:21;3.47;;;2.80;;
25365;SDS011;13315;48.274;-1.900;2023-08-12T01:35:16;4.10;;;3.25;;
25365;SDS011;13315;48.274;-1.900;2023-08-12T01:40:09;2.85;;;2.65;;
25365;SDS011;13315;48.274;-1.900;2023-08-12T01:42:36;3.10;;;2.90;;
25365;SDS011;13315;48.274;-1.900;2023-08-12T01:45:02;2.72;;;2.63;;
25365;SDS011;13315;48.274;-1.900;2023-08-12T01:47:28;2.63;;;2.53;;
25365;SDS011;13315;48.274;-1.900;2023-08-12T01:49:55;2.92;;;2.83;;
25365;SDS011;13315;48.274;-1.900;2023-08-12T01:52:21;4.95;;;3.03;;
25365;SDS011;13315;48.274;-1.900;2023-08-12T01:54:47;3.20;;;3.00;;
25365;SDS011;13315;48.274;-1.900;2023-08-12T01:57:13;2.90;;;2.70;;
25365;SDS011;13315;48.274;-1.900;2023-08-12T01:59:39;4.18;;;3.08;;
25365;SDS011;13315;48.274;-1.900;2023-08-12T02:02:06;3.10;;;2.90;;
25365;SDS011;13315;48.274;-1.900;2023-08-12T02:04:32;2.75;;;2.65;;
25365;SDS011;13315;48.274;-1.900;2023-08-12T02:06:58;2.60;;;2.50;;
25365;SDS011;13315;48.274;-1.900;2023-08-12T02:09:24;3.15;;;3.00;;
25365;SDS011;13315;48.274;-1.900;2023-08-12T02:11:50;4.45;;;2.75;;
25365;SDS011;13315;48.274;-1.900;2023-08-12T02:14:16;5.05;;;2.65;;
25365;SDS011;13315;48.274;-1.900;2023-08-12T02:16:42;3.83;;;2.90;;
25365;SDS011;13315;48.274;-1.900;2023-08-12T02:19:08;2.72;;;2.50;;
25365;SDS011;13315;48.274;-1.900;2023-08-12T02:21:34;2.97;;;2.78;;
25365;SDS011;13315;48.274;-1.900;2023-08-12T02:24:01;2.90;;;2.70;;
25365;SDS011;13315;48.274;-1.900;2023-08-12T02:26:27;3.40;;;3.10;;
25365;SDS011;13315;48.274;-1.900;2023-08-12T02:28:53;2.70;;;2.60;;
25365;SDS011;13315;48.274;-1.900;2023-08-12T02:31:19;2.60;;;2.40;;
25365;SDS011;13315;48.274;-1.900;2023-08-12T02:33:45;6.13;;;2.35;;
25365;SDS011;13315;48.274;-1.900;2023-08-12T02:36:11;7.45;;;3.05;;
25365;SDS011;13315;48.274;-1.900;2023-08-12T02:38:37;2.90;;;2.70;;
25365;SDS011;13315;48.274;-1.900;2023-08-12T02:41:03;2.60;;;2.50;;
25365;SDS011;13315;48.274;-1.900;2023-08-12T02:43:29;3.08;;;2.88;;
25365;SDS011;13315;48.274;-1.900;2023-08-12T02:45:55;2.50;;;2.40;;
25365;SDS011;13315;48.274;-1.900;2023-08-12T02:48:21;2.60;;;2.50;;
25365;SDS011;13315;48.274;-1.900;2023-08-12T02:50:47;2.50;;;2.40;;
25365;SDS011;13315;48.274;-1.900;2023-08-12T02:53:14;2.83;;;2.67;;
25365;SDS011;13315;48.274;-1.900;2023-08-12T02:55:41;2.22;;;2.13;;
25365;SDS011;13315;48.274;-1.900;2023-08-12T02:58:07;9.25;;;2.95;;
25365;SDS011;13315;48.274;-1.900;2023-08-12T03:00:33;2.97;;;2.65;;
25365;SDS011;13315;48.274;-1.900;2023-08-12T03:02:59;2.90;;;2.60;;
25365;SDS011;13315;48.274;-1.900;2023-08-12T03:05:25;5.30;;;2.67;;
25365;SDS011;13315;48.274;-1.900;2023-08-12T03:07:51;2.95;;;2.75;;
25365;SDS011;13315;48.274;-1.900;2023-08-12T03:10:17;2.85;;;2.53;;
25365;SDS011;13315;48.274;-1.900;2023-08-12T03:12:43;3.70;;;2.90;;
25365;SDS011;13315;48.274;-1.900;2023-08-12T03:15:10;2.72;;;2.60;;
25365;SDS011;13315;48.274;-1.900;2023-08-12T03:17:36;2.75;;;2.60;;
25365;SDS011;13315;48.274;-1.900;2023-08-12T03:20:06;2.40;;;2.30;;
25365;SDS011;13315;48.274;-1.900;2023-08-12T03:22:35;2.88;;;2.67;;
25365;SDS011;13315;48.274;-1.900;2023-08-12T03:25:01;2.97;;;2.78;;
25365;SDS011;13315;48.274;-1.900;2023-08-12T03:27:27;3.00;;;2.63;;
25365;SDS011;13315;48.274;-1.900;2023-08-12T03:29:53;3.33;;;2.92;;
25365;SDS011;13315;48.274;-1.900;2023-08-12T03:32:19;2.47;;;2.38;;
25365;SDS011;13315;48.274;-1.900;2023-08-12T03:34:45;2.97;;;2.78;;
25365;SDS011;13315;48.274;-1.900;2023-08-12T03:37:11;5.78;;;2.70;;
25365;SDS011;13315;48.274;-1.900;2023-08-12T03:39:37;3.15;;;2.88;;
25365;SDS011;13315;48.274;-1.900;2023-08-12T03:42:03;4.00;;;3.20;;
25365;SDS011;13315;48.274;-1.900;2023-08-12T03:44:29;3.58;;;2.80;;
25365;SDS011;13315;48.274;-1.900;2023-08-12T03:46:55;2.70;;;2.50;;
25365;SDS011;13315;48.274;-1.900;2023-08-12T03:49:21;2.80;;;2.60;;
25365;SDS011;13315;48.274;-1.900;2023-08-12T03:51:47;3.00;;;2.80;;
25365;SDS011;13315;48.274;-1.900;2023-08-12T03:54:13;2.83;;;2.63;;
25365;SDS011;13315;48.274;-1.900;2023-08-12T03:56:39;3.10;;;2.80;;
25365;SDS011;13315;48.274;-1.900;2023-08-12T03:59:05;2.67;;;2.47;;
25365;SDS011;13315;48.274;-1.900;2023-08-12T04:01:31;2.78;;;2.58;;
25365;SDS011;13315;48.274;-1.900;2023-08-12T04:03:58;2.65;;;2.35;;
25365;SDS011;13315;48.274;-1.900;2023-08-12T04:06:24;3.45;;;2.78;;
25365;SDS011;13315;48.274;-1.900;2023-08-12T04:08:50;2.70;;;2.53;;
25365;SDS011;13315;48.274;-1.900;2023-08-12T04:11:16;2.80;;;2.60;;
25365;SDS011;13315;48.274;-1.900;2023-08-12T04:13:42;2.72;;;2.53;;
25365;SDS011;13315;48.274;-1.900;2023-08-12T04:16:08;2.67;;;2.47;;
25365;SDS011;13315;48.274;-1.900;2023-08-12T04:18:34;2.40;;;2.30;;
25365;SDS011;13315;48.274;-1.900;2023-08-12T04:21:00;2.65;;;2.47;;
25365;SDS011;13315;48.274;-1.900;2023-08-12T04:23:26;3.00;;;2.80;;
25365;SDS011;13315;48.274;-1.900;2023-08-12T04:25:52;3.58;;;3.10;;
25365;SDS011;13315;48.274;-1.900;2023-08-12T04:28:19;3.28;;;3.00;;
25365;SDS011;13315;48.274;-1.900;2023-08-12T04:30:46;3.85;;;3.00;;
25365;SDS011;13315;48.274;-1.900;2023-08-12T04:33:13;3.90;;;3.55;;
25365;SDS011;13315;48.274;-1.900;2023-08-12T04:35:39;7.55;;;3.53;;
25365;SDS011;13315;48.274;-1.900;2023-08-12T04:38:05;3.08;;;2.88;;
25365;SDS011;13315;48.274;-1.900;2023-08-12T04:40:32;3.45;;;3.15;;
25365;SDS011;13315;48.274;-1.900;2023-08-12T04:42:58;4.45;;;3.33;;
25365;SDS011;13315;48.274;-1.900;2023-08-12T04:45:24;3.38;;;3.10;;
25365;SDS011;13315;48.274;-1.900;2023-08-12T04:47:50;3.00;;;2.80;;
25365;SDS011;13315;48.274;-1.900;2023-08-12T04:50:16;3.30;;;3.10;;
25365;SDS011;13315;48.274;-1.900;2023-08-12T04:52:42;5.85;;;4.45;;
25365;SDS011;13315;48.274;-1.900;2023-08-12T04:55:09;3.72;;;3.08;;
25365;SDS011;13315;48.274;-1.900;2023-08-12T04:57:38;8.32;;;4.15;;
25365;SDS011;13315;48.274;-1.900;2023-08-12T05:00:05;15.02;;;4.18;;
25365;SDS011;13315;48.274;-1.900;2023-08-12T05:02:34;3.15;;;2.95;;
25365;SDS011;13315;48.274;-1.900;2023-08-12T05:05:01;4.97;;;3.67;;
25365;SDS011;13315;48.274;-1.900;2023-08-12T05:07:27;3.70;;;3.40;;
25365;SDS011;13315;48.274;-1.900;2023-08-12T05:09:53;3.95;;;3.65;;
25365;SDS011;13315;48.274;-1.900;2023-08-12T05:12:19;7.70;;;3.83;;
25365;SDS011;13315;48.274;-1.900;2023-08-12T05:14:45;3.95;;;2.78;;
25365;SDS011;13315;48.274;-1.900;2023-08-12T05:17:11;3.20;;;3.00;;
25365;SDS011;13315;48.274;-1.900;2023-08-12T05:19:37;3.78;;;3.22;;
25365;SDS011;13315;48.274;-1.900;2023-08-12T05:22:03;7.97;;;4.85;;
25365;SDS011;13315;48.274;-1.900;2023-08-12T05:24:30;3.83;;;3.47;;
25365;SDS011;13315;48.274;-1.900;2023-08-12T05:26:56;3.88;;;3.47;;
25365;SDS011;13315;48.274;-1.900;2023-08-12T05:29:22;2.90;;;2.80;;
25365;SDS011;13315;48.274;-1.900;2023-08-12T05:31:48;3.88;;;3.58;;
25365;SDS011;13315;48.274;-1.900;2023-08-12T05:34:14;3.58;;;3.25;;
25365;SDS011;13315;48.274;-1.900;2023-08-12T05:36:40;4.63;;;3.05;;
25365;SDS011;13315;48.274;-1.900;2023-08-12T05:39:06;6.30;;;3.25;;
25365;SDS011;13315;48.274;-1.900;2023-08-12T05:41:32;2.53;;;2.40;;
25365;SDS011;13315;48.274;-1.900;2023-08-12T05:43:58;4.88;;;3.40;;
25365;SDS011;13315;48.274;-1.900;2023-08-12T05:46:24;3.55;;;3.28;;
25365;SDS011;13315;48.274;-1.900;2023-08-12T05:48:50;6.82;;;3.53;;
25365;SDS011;13315;48.274;-1.900;2023-08-12T05:51:16;2.95;;;2.60;;
25365;SDS011;13315;48.274;-1.900;2023-08-12T05:53:42;3.97;;;2.88;;
25365;SDS011;13315;48.274;-1.900;2023-08-12T05:56:08;2.92;;;2.70;;
25365;SDS011;13315;48.274;-1.900;2023-08-12T05:58:34;2.95;;;2.75;;
25365;SDS011;13315;48.274;-1.900;2023-08-12T06:01:01;3.83;;;2.55;;
25365;SDS011;13315;48.274;-1.900;2023-08-12T06:03:27;6.20;;;2.95;;
25365;SDS011;13315;48.274;-1.900;2023-08-12T06:05:53;3.25;;;2.97;;
25365;SDS011;13315;48.274;-1.900;2023-08-12T06:08:19;3.30;;;3.10;;
25365;SDS011;13315;48.274;-1.900;2023-08-12T06:10:45;3.00;;;2.67;;
25365;SDS011;13315;48.274;-1.900;2023-08-12T06:13:11;9.77;;;2.80;;
25365;SDS011;13315;48.274;-1.900;2023-08-12T06:15:37;4.00;;;3.03;;
25365;SDS011;13315;48.274;-1.900;2023-08-12T06:18:03;2.78;;;2.58;;
25365;SDS011;13315;48.274;-1.900;2023-08-12T06:20:29;7.93;;;3.08;;
25365;SDS011;13315;48.274;-1.900;2023-08-12T06:22:55;3.58;;;2.78;;
25365;SDS011;13315;48.274;-1.900;2023-08-12T06:25:21;3.00;;;2.80;;
25365;SDS011;13315;48.274;-1.900;2023-08-12T06:27:47;5.25;;;3.60;;
25365;SDS011;13315;48.274;-1.900;2023-08-12T06:30:15;6.13;;;3.53;;
25365;SDS011;13315;48.274;-1.900;2023-08-12T06:32:41;5.47;;;2.72;;
25365;SDS011;13315;48.274;-1.900;2023-08-12T06:35:08;3.58;;;3.25;;
25365;SDS011;13315;48.274;-1.900;2023-08-12T06:37:35;7.22;;;3.90;;
25365;SDS011;13315;48.274;-1.900;2023-08-12T06:40:02;9.82;;;3.50;;
25365;SDS011;13315;48.274;-1.900;2023-08-12T06:42:29;5.45;;;2.67;;
25365;SDS011;13315;48.274;-1.900;2023-08-12T06:44:56;6.30;;;3.15;;
25365;SDS011;13315;48.274;-1.900;2023-08-12T06:47:22;2.65;;;2.42;;
25365;SDS011;13315;48.274;-1.900;2023-08-12T06:49:48;5.45;;;2.97;;
25365;SDS011;13315;48.274;-1.900;2023-08-12T06:52:15;3.22;;;2.95;;
25365;SDS011;13315;48.274;-1.900;2023-08-12T06:54:44;6.53;;;2.95;;
25365;SDS011;13315;48.274;-1.900;2023-08-12T06:57:10;4.45;;;2.90;;
25365;SDS011;13315;48.274;-1.900;2023-08-12T06:59:37;9.10;;;3.30;;
25365;SDS011;13315;48.274;-1.900;2023-08-12T07:02:03;2.40;;;2.20;;
25365;SDS011;13315;48.274;-1.900;2023-08-12T07:04:29;6.13;;;3.42;;
25365;SDS011;13315;48.274;-1.900;2023-08-12T07:06:55;3.03;;;2.67;;
25365;SDS011;13315;48.274;-1.900;2023-08-12T07:09:21;4.32;;;3.10;;
25365;SDS011;13315;48.274;-1.900;2023-08-12T07:11:47;4.38;;;2.90;;
25365;SDS011;13315;48.274;-1.900;2023-08-12T07:14:14;4.18;;;2.92;;
25365;SDS011;13315;48.274;-1.900;2023-08-12T07:16:40;2.67;;;2.42;;
25365;SDS011;13315;48.274;-1.900;2023-08-12T07:19:06;3.05;;;2.75;;
25365;SDS011;13315;48.274;-1.900;2023-08-12T07:21:32;3.35;;;3.03;;
25365;SDS011;13315;48.274;-1.900;2023-08-12T07:23:58;2.97;;;2.28;;
25365;SDS011;13315;48.274;-1.900;2023-08-12T07:26:24;3.38;;;2.10;;
25365;SDS011;13315;48.274;-1.900;2023-08-12T07:28:50;6.88;;;2.20;;
25365;SDS011;13315;48.274;-1.900;2023-08-12T07:31:16;3.85;;;2.95;;
25365;SDS011;13315;48.274;-1.900;2023-08-12T07:33:43;2.97;;;2.20;;
25365;SDS011;13315;48.274;-1.900;2023-08-12T07:36:09;2.20;;;2.10;;
25365;SDS011;13315;48.274;-1.900;2023-08-12T07:38:35;5.38;;;2.97;;
25365;SDS011;13315;48.274;-1.900;2023-08-12T07:41:01;4.93;;;2.60;;
25365;SDS011;13315;48.274;-1.900;2023-08-12T07:43:27;3.30;;;2.28;;
25365;SDS011;13315;48.274;-1.900;2023-08-12T07:45:53;3.88;;;2.50;;
25365;SDS011;13315;48.274;-1.900;2023-08-12T07:48:20;2.75;;;2.50;;
25365;SDS011;13315;48.274;-1.900;2023-08-12T07:50:46;5.35;;;2.75;;
25365;SDS011;13315;48.274;-1.900;2023-08-12T07:53:15;3.50;;;2.30;;
25365;SDS011;13315;48.274;-1.900;2023-08-12T07:55:44;2.92;;;2.45;;
25365;SDS011;13315;48.274;-1.900;2023-08-12T07:58:10;2.42;;;2.30;;
25365;SDS011;13315;48.274;-1.900;2023-08-12T08:00:36;12.38;;;3.20;;
25365;SDS011;13315;48.274;-1.900;2023-08-12T08:03:02;3.50;;;2.15;;
25365;SDS011;13315;48.274;-1.900;2023-08-12T08:05:28;4.85;;;2.20;;
25365;SDS011;13315;48.274;-1.900;2023-08-12T08:07:54;13.73;;;3.30;;
25365;SDS011;13315;48.274;-1.900;2023-08-12T08:10:21;3.78;;;2.50;;
25365;SDS011;13315;48.274;-1.900;2023-08-12T08:12:47;2.60;;;2.33;;
25365;SDS011;13315;48.274;-1.900;2023-08-12T08:15:13;4.57;;;2.40;;
25365;SDS011;13315;48.274;-1.900;2023-08-12T08:17:39;3.33;;;2.40;;
25365;SDS011;13315;48.274;-1.900;2023-08-12T08:20:05;9.88;;;2.60;;
25365;SDS011;13315;48.274;-1.900;2023-08-12T08:22:31;2.55;;;2.35;;
25365;SDS011;13315;48.274;-1.900;2023-08-12T08:24:58;5.38;;;2.85;;
25365;SDS011;13315;48.274;-1.900;2023-08-12T08:27:24;3.13;;;2.28;;
25365;SDS011;13315;48.274;-1.900;2023-08-12T08:29:50;2.20;;;2.10;;
25365;SDS011;13315;48.274;-1.900;2023-08-12T08:32:16;3.58;;;1.80;;
25365;SDS011;13315;48.274;-1.900;2023-08-12T08:34:42;4.38;;;2.03;;
25365;SDS011;13315;48.274;-1.900;2023-08-12T08:37:08;1.73;;;1.63;;
25365;SDS011;13315;48.274;-1.900;2023-08-12T08:39:35;2.17;;;1.67;;
25365;SDS011;13315;48.274;-1.900;2023-08-12T08:42:01;3.15;;;1.80;;
25365;SDS011;13315;48.274;-1.900;2023-08-12T08:44:28;2.85;;;2.08;;
25365;SDS011;13315;48.274;-1.900;2023-08-12T08:46:58;1.20;;;1.15;;
25365;SDS011;13315;48.274;-1.900;2023-08-12T08:49:25;4.13;;;1.48;;
25365;SDS011;13315;48.274;-1.900;2023-08-12T08:51:51;2.15;;;2.00;;
25365;SDS011;13315;48.274;-1.900;2023-08-12T08:54:18;2.20;;;1.95;;
25365;SDS011;13315;48.274;-1.900;2023-08-12T08:56:45;8.50;;;2.65;;
25365;SDS011;13315;48.274;-1.900;2023-08-12T08:59:11;3.00;;;2.28;;
25365;SDS011;13315;48.274;-1.900;2023-08-12T09:01:42;4.05;;;2.50;;
25365;SDS011;13315;48.274;-1.900;2023-08-12T09:04:10;1.92;;;1.80;;
25365;SDS011;13315;48.274;-1.900;2023-08-12T09:06:37;5.60;;;2.15;;
25365;SDS011;13315;48.274;-1.900;2023-08-12T09:09:05;5.90;;;1.90;;
25365;SDS011;13315;48.274;-1.900;2023-08-12T09:11:33;3.33;;;1.50;;
25365;SDS011;13315;48.274;-1.900;2023-08-12T09:13:59;3.85;;;1.63;;
25365;SDS011;13315;48.274;-1.900;2023-08-12T09:16:25;4.55;;;1.48;;
25365;SDS011;13315;48.274;-1.900;2023-08-12T09:18:55;6.80;;;2.08;;
25365;SDS011;13315;48.274;-1.900;2023-08-12T09:21:22;5.32;;;1.55;;
25365;SDS011;13315;48.274;-1.900;2023-08-12T09:23:49;6.07;;;2.35;;
25365;SDS011;13315;48.274;-1.900;2023-08-12T09:26:16;3.67;;;1.50;;
25365;SDS011;13315;48.274;-1.900;2023-08-12T09:28:42;2.05;;;1.45;;
25365;SDS011;13315;48.274;-1.900;2023-08-12T09:31:11;4.57;;;1.80;;
25365;SDS011;13315;48.274;-1.900;2023-08-12T09:33:47;3.08;;;1.73;;
25365;SDS011;13315;48.274;-1.900;2023-08-12T09:36:13;4.13;;;1.70;;
25365;SDS011;13315;48.274;-1.900;2023-08-12T09:38:39;2.25;;;1.67;;
25365;SDS011;13315;48.274;-1.900;2023-08-12T09:41:06;6.57;;;1.85;;
25365;SDS011;13315;48.274;-1.900;2023-08-12T09:43:32;2.40;;;1.60;;
25365;SDS011;13315;48.274;-1.900;2023-08-12T09:45:58;1.38;;;1.25;;
25365;SDS011;13315;48.274;-1.900;2023-08-12T09:48:24;1.50;;;1.20;;
25365;SDS011;13315;48.274;-1.900;2023-08-12T09:50:51;3.08;;;1.40;;
25365;SDS011;13315;48.274;-1.900;2023-08-12T09:53:17;3.95;;;1.33;;
25365;SDS011;13315;48.274;-1.900;2023-08-12T09:55:43;2.50;;;1.80;;
25365;SDS011;13315;48.274;-1.900;2023-08-12T09:58:12;3.50;;;1.85;;
25365;SDS011;13315;48.274;-1.900;2023-08-12T10:00:38;1.20;;;1.20;;
25365;SDS011;13315;48.274;-1.900;2023-08-12T10:03:06;1.42;;;1.30;;
25365;SDS011;13315;48.274;-1.900;2023-08-12T10:05:33;1.65;;;1.55;;
25365;SDS011;13315;48.274;-1.900;2023-08-12T10:07:59;1.23;;;1.02;;
25365;SDS011;13315;48.274;-1.900;2023-08-12T10:10:29;3.17;;;1.27;;
25365;SDS011;13315;48.274;-1.900;2023-08-12T10:12:56;2.85;;;1.77;;
25365;SDS011;13315;48.274;-1.900;2023-08-12T10:15:23;3.28;;;1.90;;
25365;SDS011;13315;48.274;-1.900;2023-08-12T10:17:51;6.03;;;1.38;;
25365;SDS011;13315;48.274;-1.900;2023-08-12T10:20:21;4.25;;;1.60;;
25365;SDS011;13315;48.274;-1.900;2023-08-12T10:22:52;1.58;;;1.48;;
25365;SDS011;13315;48.274;-1.900;2023-08-12T10:25:20;1.73;;;1.30;;
25365;SDS011;13315;48.274;-1.900;2023-08-12T10:27:49;1.63;;;1.40;;
25365;SDS011;13315;48.274;-1.900;2023-08-12T10:30:15;3.13;;;1.63;;
25365;SDS011;13315;48.274;-1.900;2023-08-12T10:32:41;1.45;;;1.35;;
25365;SDS011;13315;48.274;-1.900;2023-08-12T10:35:08;3.13;;;1.00;;
25365;SDS011;13315;48.274;-1.900;2023-08-12T10:37:35;1.48;;;0.98;;
25365;SDS011;13315;48.274;-1.900;2023-08-12T10:40:04;1.42;;;1.33;;
25365;SDS011;13315;48.274;-1.900;2023-08-12T10:42:40;2.30;;;1.38;;
25365;SDS011;13315;48.274;-1.900;2023-08-12T10:45:10;3.03;;;1.48;;
25365;SDS011;13315;48.274;-1.900;2023-08-12T10:47:40;5.32;;;1.25;;
25365;SDS011;13315;48.274;-1.900;2023-08-12T10:50:12;1.38;;;1.27;;
25365;SDS011;13315;48.274;-1.900;2023-08-12T10:52:42;3.28;;;1.80;;
25365;SDS011;13315;48.274;-1.900;2023-08-12T10:55:17;1.20;;;1.10;;
25365;SDS011;13315;48.274;-1.900;2023-08-12T10:57:43;3.28;;;1.20;;
25365;SDS011;13315;48.274;-1.900;2023-08-12T11:00:10;0.90;;;0.90;;
25365;SDS011;13315;48.274;-1.900;2023-08-12T11:02:38;4.60;;;1.60;;
25365;SDS011;13315;48.274;-1.900;2023-08-12T11:05:11;1.10;;;1.10;;
25365;SDS011;13315;48.274;-1.900;2023-08-12T11:07:38;0.98;;;0.95;;
25365;SDS011;13315;48.274;-1.900;2023-08-12T11:10:27;1.23;;;1.13;;
25365;SDS011;13315;48.274;-1.900;2023-08-12T11:15:18;1.30;;;1.00;;
25365;SDS011;13315;48.274;-1.900;2023-08-12T11:17:45;3.25;;;1.50;;
25365;SDS011;13315;48.274;-1.900;2023-08-12T11:20:12;5.15;;;1.75;;
25365;SDS011;13315;48.274;-1.900;2023-08-12T11:22:39;1.52;;;1.42;;
25365;SDS011;13315;48.274;-1.900;2023-08-12T11:25:06;3.45;;;1.38;;
25365;SDS011;13315;48.274;-1.900;2023-08-12T11:27:41;1.05;;;1.00;;
25365;SDS011;13315;48.274;-1.900;2023-08-12T11:30:08;3.17;;;1.92;;
25365;SDS011;13315;48.274;-1.900;2023-08-12T11:32:35;1.85;;;1.75;;
25365;SDS011;13315;48.274;-1.900;2023-08-12T11:35:01;3.10;;;1.23;;
25365;SDS011;13315;48.274;-1.900;2023-08-12T11:37:29;4.47;;;1.70;;
25365;SDS011;13315;48.274;-1.900;2023-08-12T11:39:55;1.92;;;1.13;;
25365;SDS011;13315;48.274;-1.900;2023-08-12T11:42:21;1.95;;;1.10;;
25365;SDS011;13315;48.274;-1.900;2023-08-12T11:44:47;4.45;;;2.03;;
25365;SDS011;13315;48.274;-1.900;2023-08-12T11:47:13;1.92;;;1.30;;
25365;SDS011;13315;48.274;-1.900;2023-08-12T11:49:39;2.13;;;1.63;;
25365;SDS011;13315;48.274;-1.900;2023-08-12T11:52:05;6.07;;;1.92;;
25365;SDS011;13315;48.274;-1.900;2023-08-12T11:54:31;3.65;;;1.75;;
25365;SDS011;13315;48.274;-1.900;2023-08-12T11:56:58;1.38;;;1.30;;
25365;SDS011;13315;48.274;-1.900;2023-08-12T11:59:24;1.35;;;1.25;;
25365;SDS011;13315;48.274;-1.900;2023-08-12T12:01:51;1.15;;;1.10;;
25365;SDS011;13315;48.274;-1.900;2023-08-12T12:04:17;2.10;;;1.42;;
25365;SDS011;13315;48.274;-1.900;2023-08-12T12:06:45;6.05;;;2.75;;
25365;SDS011;13315;48.274;-1.900;2023-08-12T12:09:11;1.35;;;1.25;;
25365;SDS011;13315;48.274;-1.900;2023-08-12T12:11:39;4.80;;;1.02;;
25365;SDS011;13315;48.274;-1.900;2023-08-12T12:14:06;2.03;;;1.00;;
25365;SDS011;13315;48.274;-1.900;2023-08-12T12:19:08;1.15;;;1.00;;
25365;SDS011;13315;48.274;-1.900;2023-08-12T12:21:40;1.45;;;1.35;;
25365;SDS011;13315;48.274;-1.900;2023-08-12T12:24:07;3.33;;;1.30;;
25365;SDS011;13315;48.274;-1.900;2023-08-12T12:26:34;2.67;;;1.50;;
25365;SDS011;13315;48.274;-1.900;2023-08-12T12:29:00;1.10;;;1.10;;
25365;SDS011;13315;48.274;-1.900;2023-08-12T12:31:26;2.88;;;1.30;;
25365;SDS011;13315;48.274;-1.900;2023-08-12T12:33:52;2.78;;;1.00;;
25365;SDS011;13315;48.274;-1.900;2023-08-12T12:36:18;3.20;;;1.33;;
25365;SDS011;13315;48.274;-1.900;2023-08-12T12:38:44;2.58;;;1.38;;
25365;SDS011;13315;48.274;-1.900;2023-08-12T12:41:10;2.03;;;1.27;;
25365;SDS011;13315;48.274;-1.900;2023-08-12T12:43:36;1.38;;;1.00;;
25365;SDS011;13315;48.274;-1.900;2023-08-12T12:46:02;1.23;;;1.15;;
25365;SDS011;13315;48.274;-1.900;2023-08-12T12:48:28;2.60;;;1.30;;
25365;SDS011;13315;48.274;-1.900;2023-08-12T12:50:54;1.50;;;1.40;;
25365;SDS011;13315;48.274;-1.900;2023-08-12T12:53:20;1.95;;;1.13;;
25365;SDS011;13315;48.274;-1.900;2023-08-12T12:55:47;1.40;;;1.30;;
25365;SDS011;13315;48.274;-1.900;2023-08-12T12:58:13;1.38;;;0.90;;
25365;SDS011;13315;48.274;-1.900;2023-08-12T13:00:39;7.03;;;1.25;;
25365;SDS011;13315;48.274;-1.900;2023-08-12T13:03:06;1.30;;;1.20;;
25365;SDS011;13315;48.274;-1.900;2023-08-12T13:05:32;1.73;;;1.55;;
25365;SDS011;13315;48.274;-1.900;2023-08-12T13:07:58;5.45;;;1.30;;
25365;SDS011;13315;48.274;-1.900;2023-08-12T13:10:24;1.13;;;1.10;;
25365;SDS011;13315;48.274;-1.900;2023-08-12T13:12:50;1.80;;;1.00;;
25365;SDS011;13315;48.274;-1.900;2023-08-12T13:15:16;1.30;;;1.20;;
25365;SDS011;13315;48.274;-1.900;2023-08-12T13:17:42;10.13;;;1.67;;
25365;SDS011;13315;48.274;-1.900;2023-08-12T13:20:08;1.13;;;1.10;;
25365;SDS011;13315;48.274;-1.900;2023-08-12T13:22:35;1.27;;;1.17;;
25365;SDS011;13315;48.274;-1.900;2023-08-12T13:25:01;1.77;;;1.60;;
25365;SDS011;13315;48.274;-1.900;2023-08-12T13:27:27;0.93;;;0.93;;
25365;SDS011;13315;48.274;-1.900;2023-08-12T13:29:53;1.20;;;1.20;;
25365;SDS011;13315;48.274;-1.900;2023-08-12T13:32:19;1.40;;;1.30;;
25365;SDS011;13315;48.274;-1.900;2023-08-12T13:34:45;1.08;;;0.93;;
25365;SDS011;13315;48.274;-1.900;2023-08-12T13:37:12;1.15;;;1.13;;
25365;SDS011;13315;48.274;-1.900;2023-08-12T13:39:39;5.15;;;1.48;;
25365;SDS011;13315;48.274;-1.900;2023-08-12T13:42:05;1.40;;;1.13;;
25365;SDS011;13315;48.274;-1.900;2023-08-12T13:44:31;1.42;;;1.05;;
25365;SDS011;13315;48.274;-1.900;2023-08-12T13:46:57;4.75;;;1.20;;
25365;SDS011;13315;48.274;-1.900;2023-08-12T13:49:24;2.58;;;1.58;;
25365;SDS011;13315;48.274;-1.900;2023-08-12T13:51:50;2.67;;;1.23;;
25365;SDS011;13315;48.274;-1.900;2023-08-12T13:54:16;5.45;;;1.77;;
25365;SDS011;13315;48.274;-1.900;2023-08-12T13:56:42;2.15;;;1.42;;
25365;SDS011;13315;48.274;-1.900;2023-08-12T13:59:08;1.30;;;1.20;;
25365;SDS011;13315;48.274;-1.900;2023-08-12T14:01:34;7.57;;;1.77;;
25365;SDS011;13315;48.274;-1.900;2023-08-12T14:04:01;1.50;;;1.33;;
25365;SDS011;13315;48.274;-1.900;2023-08-12T14:06:27;4.82;;;1.27;;
25365;SDS011;13315;48.274;-1.900;2023-08-12T14:08:53;1.95;;;1.75;;
25365;SDS011;13315;48.274;-1.900;2023-08-12T14:11:19;3.00;;;1.50;;
25365;SDS011;13315;48.274;-1.900;2023-08-12T14:13:45;1.20;;;1.10;;
25365;SDS011;13315;48.274;-1.900;2023-08-12T14:16:12;1.50;;;0.95;;
25365;SDS011;13315;48.274;-1.900;2023-08-12T14:18:38;2.40;;;1.38;;
25365;SDS011;13315;48.274;-1.900;2023-08-12T14:21:04;0.85;;;0.82;;
25365;SDS011;13315;48.274;-1.900;2023-08-12T14:23:31;5.10;;;1.10;;
25365;SDS011;13315;48.274;-1.900;2023-08-12T14:25:57;1.20;;;1.10;;
25365;SDS011;13315;48.274;-1.900;2023-08-12T14:28:23;2.92;;;1.77;;
25365;SDS011;13315;48.274;-1.900;2023-08-12T14:30:49;4.97;;;1.63;;
25365;SDS011;13315;48.274;-1.900;2023-08-12T14:33:15;1.90;;;1.02;;
25365;SDS011;13315;48.274;-1.900;2023-08-12T14:35:41;2.83;;;1.15;;
25365;SDS011;13315;48.274;-1.900;2023-08-12T14:38:07;0.90;;;0.80;;
25365;SDS011;13315;48.274;-1.900;2023-08-12T14:40:33;1.15;;;1.00;;